Time;durP1;ratioP1;P1;durP2;ratioP2;P2;SDS_P1;SDS_P2;PMS_P1;PMS_P2;Temp;Humidity;BMP_temperature;BMP_pressure;BME280_temperature;BME280_humidity;BME280_pressure;Samples;Min_cycle;Max_cycle;Signal;HPM_P1;HPM_P2
2021/12/09 00:00:21;;;;;;;6.88;2.05;;;22.40;99.90;;;;;;4994617;28;20514;-68
2021/12/09 00:02:48;;;;;;;5.40;1.40;;;22.60;99.90;;;;;;4997165;28;20077;-68
2021/12/09 00:05:17;;;;;;;4.93;1.30;;;22.80;99.90;;;;;;5012828;28;20507;-68
2021/12/09 00:07:49;;;;;;;5.60;1.45;;;22.70;99.90;;;;;;4997146;28;20177;-68
2021/12/09 00:10:17;;;;;;;9.02;1.50;;;22.80;99.90;;;;;;4996221;28;20387;-67
2021/12/09 00:12:44;;;;;;;7.57;1.10;;;22.90;99.90;;;;;;4998340;28;20125;-68
2021/12/09 00:15:12;;;;;;;9.55;2.10;;;22.90;99.90;;;;;;4998055;28;20030;-67
2021/12/09 00:17:39;;;;;;;6.47;1.23;;;23.20;99.90;;;;;;4998159;28;20084;-67
2021/12/09 00:20:07;;;;;;;7.85;1.27;;;23.20;99.90;;;;;;5009376;28;20043;-68
2021/12/09 00:22:35;;;;;;;6.65;1.63;;;23.10;99.90;;;;;;4979813;28;20054;-68
2021/12/09 00:25:02;;;;;;;3.90;1.13;;;23.10;99.90;;;;;;4994978;28;20034;-68
2021/12/09 00:27:29;;;;;;;5.45;1.52;;;23.50;99.90;;;;;;5017269;28;20031;-68
2021/12/09 00:29:56;;;;;;;7.72;1.70;;;23.60;99.90;;;;;;4998751;28;20065;-68
2021/12/09 00:32:24;;;;;;;4.20;1.17;;;23.90;99.90;;;;;;5001571;28;20044;-67
2021/12/09 00:34:52;;;;;;;5.68;1.40;;;23.50;99.90;;;;;;5003227;28;20678;-68
2021/12/09 00:39:52;;;;;;;4.13;1.20;;;23.10;99.90;;;;;;5002884;28;20026;-67
2021/12/09 00:42:22;;;;;;;3.67;0.85;;;23.10;99.90;;;;;;5004581;28;20034;-67
2021/12/09 00:44:50;;;;;;;5.78;1.08;;;23.00;99.90;;;;;;5002924;28;20466;-67
2021/12/09 00:47:18;;;;;;;3.45;1.15;;;23.50;99.90;;;;;;5000759;28;20026;-68
2021/12/09 00:49:46;;;;;;;5.07;1.42;;;23.90;99.90;;;;;;5003739;28;20022;-67
2021/12/09 00:52:14;;;;;;;9.63;1.98;;;24.00;99.90;;;;;;5002089;28;20038;-66
2021/12/09 00:54:42;;;;;;;7.68;1.77;;;24.00;99.90;;;;;;5003793;28;20086;-67
2021/12/09 00:57:11;;;;;;;6.75;1.33;;;24.00;99.90;;;;;;5020089;28;20030;-67
2021/12/09 00:59:39;;;;;;;6.85;1.77;;;23.70;99.90;;;;;;5000432;28;20061;-67
2021/12/09 01:02:06;;;;;;;5.93;1.50;;;23.80;99.90;;;;;;5000668;28;20058;-68
2021/12/09 01:04:34;;;;;;;9.13;1.65;;;23.70;99.90;;;;;;5021232;22;20125;-68
2021/12/09 01:07:01;;;;;;;7.80;1.48;;;23.30;99.90;;;;;;5024049;28;20034;-67
2021/12/09 01:11:56;;;;;;;4.53;1.38;;;23.30;99.90;;;;;;5022361;28;20050;-67
2021/12/09 01:14:23;;;;;;;5.60;1.60;;;23.60;99.90;;;;;;5025063;28;20049;-68
2021/12/09 01:16:51;;;;;;;6.75;1.35;;;23.70;99.90;;;;;;5027700;28;20026;-68
2021/12/09 01:19:18;;;;;;;7.15;1.50;;;23.60;99.90;;;;;;5026755;28;20036;-68
2021/12/09 01:21:46;;;;;;;10.25;2.47;;;23.80;99.90;;;;;;5025225;28;20029;-68
2021/12/09 01:24:13;;;;;;;8.18;2.38;;;23.50;99.90;;;;;;5026861;28;20413;-68
2021/12/09 01:26:41;;;;;;;9.55;2.10;;;23.70;99.90;;;;;;5027381;28;20053;-67
2021/12/09 01:29:16;;;;;;;10.02;2.03;;;23.80;99.90;;;;;;5024436;28;20503;-67
2021/12/09 01:31:48;;;;;;;5.82;2.10;;;23.50;99.90;;;;;;5026343;28;20021;-67
2021/12/09 01:34:16;;;;;;;7.25;2.17;;;23.80;99.90;;;;;;5025647;28;20351;-67
2021/12/09 01:36:43;;;;;;;9.05;2.35;;;23.30;99.90;;;;;;5027453;28;20026;-67
2021/12/09 01:39:11;;;;;;;9.25;2.25;;;22.80;99.90;;;;;;5021288;28;20079;-67
2021/12/09 01:41:39;;;;;;;8.30;1.90;;;22.80;99.90;;;;;;5026374;28;20028;-67
2021/12/09 01:44:06;;;;;;;8.48;2.33;;;23.30;99.90;;;;;;5024913;28;20036;-67
2021/12/09 01:46:34;;;;;;;7.30;1.63;;;23.60;99.90;;;;;;5027127;28;20045;-67
2021/12/09 01:49:01;;;;;;;5.93;2.35;;;23.60;99.90;;;;;;5026067;28;20108;-67
2021/12/09 01:51:29;;;;;;;6.68;1.85;;;23.40;99.90;;;;;;5027458;28;20029;-67
2021/12/09 01:53:56;;;;;;;8.50;1.95;;;23.40;99.90;;;;;;5027539;28;20029;-67
2021/12/09 01:56:29;;;;;;;10.30;1.83;;;23.70;99.90;;;;;;5027769;28;20025;-67
2021/12/09 01:59:04;;;;;;;9.63;1.73;;;24.10;99.90;;;;;;5023265;28;20022;-68
2021/12/09 02:01:32;;;;;;;6.50;2.08;;;24.10;99.90;;;;;;5028867;28;20030;-68
2021/12/09 02:04:01;;;;;;;12.35;2.00;;;24.40;99.90;;;;;;5022516;28;20044;-67
2021/12/09 02:06:29;;;;;;;6.60;2.38;;;24.20;99.90;;;;;;5035137;28;20125;-68
2021/12/09 02:08:57;;;;;;;9.05;2.05;;;24.50;99.90;;;;;;5028807;28;20022;-68
2021/12/09 02:11:24;;;;;;;8.98;2.17;;;24.60;99.90;;;;;;5027629;28;20045;-68
2021/12/09 02:13:55;;;;;;;6.75;2.08;;;24.70;99.90;;;;;;5029773;28;20018;-68
2021/12/09 02:16:23;;;;;;;7.25;1.50;;;24.90;99.90;;;;;;5030560;28;20108;-68
2021/12/09 02:18:53;;;;;;;4.55;1.35;;;24.80;99.90;;;;;;5027300;28;20046;-68
2021/12/09 02:21:29;;;;;;;8.48;1.85;;;24.70;99.90;;;;;;5028581;28;20033;-68
2021/12/09 02:24:05;;;;;;;12.45;3.08;;;24.60;99.90;;;;;;5027043;28;20076;-67
2021/12/09 02:26:36;;;;;;;8.10;1.50;;;24.60;99.90;;;;;;5027096;28;20046;-67
2021/12/09 02:29:07;;;;;;;9.60;1.98;;;24.80;99.90;;;;;;5027324;28;20022;-67
2021/12/09 02:31:35;;;;;;;11.18;2.20;;;24.30;99.90;;;;;;5023043;28;20045;-68
2021/12/09 02:34:03;;;;;;;7.70;2.00;;;24.10;99.90;;;;;;5042422;28;20037;-67
2021/12/09 02:36:36;;;;;;;11.45;2.00;;;24.00;99.90;;;;;;5026212;28;20057;-67
2021/12/09 02:39:09;;;;;;;5.88;1.27;;;23.90;99.90;;;;;;5026031;28;20018;-67
2021/12/09 02:41:37;;;;;;;7.13;1.67;;;23.70;99.90;;;;;;5039571;28;20048;-68
2021/12/09 02:44:07;;;;;;;10.05;2.00;;;23.80;99.90;;;;;;5027460;28;20033;-67
2021/12/09 02:46:38;;;;;;;8.57;1.98;;;23.80;99.90;;;;;;5029075;28;20029;-68
2021/12/09 02:49:15;;;;;;;8.15;2.28;;;23.40;99.90;;;;;;5025839;28;20018;-67
2021/12/09 02:51:43;;;;;;;14.77;2.20;;;23.20;99.90;;;;;;5043434;28;20038;-67
2021/12/09 02:54:13;;;;;;;10.30;2.45;;;22.90;99.90;;;;;;5028877;28;20029;-67
2021/12/09 02:56:40;;;;;;;10.73;2.55;;;22.50;99.90;;;;;;5045023;28;20013;-68
2021/12/09 02:59:08;;;;;;;11.30;2.65;;;22.30;99.90;;;;;;5027697;28;20414;-68
2021/12/09 03:01:48;;;;;;;9.82;1.98;;;22.20;99.90;;;;;;5026249;28;20026;-67
2021/12/09 03:04:16;;;;;;;9.18;2.83;;;22.00;99.90;;;;;;5027949;28;20506;-67
2021/12/09 03:06:44;;;;;;;10.65;1.75;;;21.90;99.90;;;;;;5028098;28;20034;-67
2021/12/09 03:09:18;;;;;;;8.55;2.42;;;21.80;99.90;;;;;;5031005;28;20045;-68
2021/12/09 03:11:52;;;;;;;;;;;21.90;99.90;;;;;;5033802;28;20065;-67
2021/12/09 03:14:20;;;;;;;7.55;1.48;;;22.00;99.90;;;;;;5031324;28;19917;-67
2021/12/09 03:16:48;;;;;;;19.83;3.05;;;22.10;99.90;;;;;;5032236;28;20017;-67
2021/12/09 03:19:15;;;;;;;12.60;2.45;;;22.50;99.90;;;;;;5033896;28;20038;-68
2021/12/09 03:21:45;;;;;;;6.25;1.95;;;22.40;99.90;;;;;;5036532;28;20034;-67
2021/12/09 03:24:18;;;;;;;11.23;2.20;;;22.30;99.90;;;;;;5032695;28;20006;-67
2021/12/09 03:26:54;;;;;;;9.38;1.98;;;22.00;99.90;;;;;;5049929;28;20030;-67
2021/12/09 03:29:23;;;;;;;5.75;1.88;;;21.90;99.90;;;;;;5033408;28;20022;-67
2021/12/09 03:31:52;;;;;;;10.60;2.78;;;21.90;99.90;;;;;;5032684;28;20045;-67
2021/12/09 03:34:22;;;;;;;11.82;2.60;;;22.20;99.90;;;;;;5033129;28;20022;-67
2021/12/09 03:36:51;;;;;;;8.82;2.60;;;22.50;99.90;;;;;;5034878;28;20059;-67
2021/12/09 03:39:22;;;;;;;13.25;2.80;;;22.40;99.90;;;;;;5040755;28;20026;-67
2021/12/09 03:41:52;;;;;;;9.35;2.35;;;22.20;99.90;;;;;;5051475;28;20033;-67
2021/12/09 03:44:20;;;;;;;11.52;2.58;;;22.10;99.90;;;;;;5036004;28;20054;-67
2021/12/09 03:46:50;;;;;;;13.75;2.65;;;22.00;99.90;;;;;;5034661;28;20026;-68
2021/12/09 03:49:18;;;;;;;9.02;2.40;;;21.90;99.90;;;;;;5032971;28;20072;-67
2021/12/09 03:51:45;;;;;;;8.20;2.13;;;21.90;99.90;;;;;;5033140;28;20017;-68
2021/12/09 03:54:13;;;;;;;13.25;2.95;;;22.00;99.90;;;;;;5032722;28;20029;-67
2021/12/09 03:56:41;;;;;;;9.30;2.05;;;22.20;99.90;;;;;;5034029;28;20037;-67
2021/12/09 03:59:11;;;;;;;4.88;1.85;;;22.30;99.90;;;;;;5046754;28;20040;-67
2021/12/09 04:01:40;;;;;;;8.55;1.88;;;22.40;99.90;;;;;;5029422;28;20030;-67
2021/12/09 04:04:08;;;;;;;8.07;2.25;;;22.40;99.90;;;;;;5032194;28;20030;-67
2021/12/09 04:06:36;;;;;;;15.70;2.45;;;22.50;99.90;;;;;;5034184;28;20060;-68
2021/12/09 04:09:07;;;;;;;10.15;2.17;;;22.80;99.90;;;;;;5033527;28;20034;-67
2021/12/09 04:11:35;;;;;;;8.82;1.83;;;22.80;99.90;;;;;;5034006;28;20050;-68
2021/12/09 04:14:03;;;;;;;12.32;2.28;;;22.50;99.90;;;;;;5032314;28;20100;-68
2021/12/09 04:16:31;;;;;;;8.35;2.13;;;22.50;99.90;;;;;;5033305;28;20029;-68
2021/12/09 04:18:59;;;;;;;9.88;2.40;;;22.50;99.90;;;;;;5046109;28;20038;-68
2021/12/09 04:21:28;;;;;;;9.60;1.67;;;22.60;99.90;;;;;;5011927;28;20010;-68
2021/12/09 04:23:55;;;;;;;8.73;1.70;;;22.60;99.90;;;;;;5013981;28;20030;-68
2021/12/09 04:26:23;;;;;;;11.35;2.13;;;22.40;99.90;;;;;;5013668;28;20034;-67
2021/12/09 04:28:50;;;;;;;14.10;2.65;;;22.30;99.90;;;;;;5021861;28;20479;-67
2021/12/09 04:31:18;;;;;;;11.45;2.80;;;22.30;99.90;;;;;;5033613;28;20041;-68
2021/12/09 04:33:45;;;;;;;9.80;2.25;;;22.50;99.90;;;;;;5031001;28;20037;-68
2021/12/09 04:36:13;;;;;;;9.75;2.40;;;22.40;99.90;;;;;;5031952;28;20038;-67
2021/12/09 04:38:40;;;;;;;12.77;2.13;;;22.20;99.90;;;;;;5033090;28;20018;-68
2021/12/09 04:41:07;;;;;;;12.75;2.63;;;21.90;99.90;;;;;;5032210;28;20022;-68
2021/12/09 04:43:37;;;;;;;13.00;2.75;;;22.00;99.90;;;;;;5033352;28;20022;-68
2021/12/09 04:46:04;;;;;;;13.75;2.60;;;22.00;99.90;;;;;;5032318;28;20014;-67
2021/12/09 04:48:32;;;;;;;8.15;1.73;;;22.10;99.90;;;;;;5025544;28;20029;-67
2021/12/09 04:50:59;;;;;;;8.73;2.00;;;22.10;99.90;;;;;;5030724;28;20032;-67
2021/12/09 04:53:26;;;;;;;9.25;1.95;;;22.10;99.90;;;;;;5028364;28;20026;-67
2021/12/09 04:55:54;;;;;;;8.13;2.13;;;22.30;99.90;;;;;;5029484;28;20509;-67
2021/12/09 04:58:23;;;;;;;10.05;2.00;;;22.50;99.90;;;;;;5030663;28;20041;-67
2021/12/09 05:00:52;;;;;;;12.68;2.20;;;22.50;99.90;;;;;;5028470;28;20217;-67
2021/12/09 05:03:19;;;;;;;6.70;2.08;;;22.50;99.90;;;;;;5041315;28;20026;-67
2021/12/09 05:05:52;;;;;;;9.50;1.98;;;22.30;99.90;;;;;;5030141;28;20058;-68
2021/12/09 05:08:22;;;;;;;6.22;1.75;;;22.40;99.90;;;;;;5031153;28;20028;-68
2021/12/09 05:11:00;;;;;;;7.10;2.10;;;22.30;99.90;;;;;;5033253;28;20097;-67
2021/12/09 05:13:29;;;;;;;13.93;3.00;;;22.10;99.90;;;;;;5042050;28;20394;-68
2021/12/09 05:15:57;;;;;;;13.20;2.28;;;21.90;99.90;;;;;;5033250;28;20010;-68
2021/12/09 05:18:26;;;;;;;8.30;2.20;;;22.00;99.90;;;;;;5030573;28;20030;-67
2021/12/09 05:20:54;;;;;;;8.50;2.50;;;22.20;99.90;;;;;;5033549;28;20093;-67
2021/12/09 05:23:22;;;;;;;9.43;2.28;;;22.50;99.90;;;;;;5032821;28;20030;-67
2021/12/09 05:25:50;;;;;;;9.77;2.17;;;22.50;99.90;;;;;;5031786;28;20506;-69
2021/12/09 05:28:27;;;;;;;9.60;1.77;;;22.30;99.90;;;;;;5030973;28;20030;-67
2021/12/09 05:33:39;;;;;;;9.05;2.05;;;21.50;99.90;;;;;;5030205;28;20033;-67
2021/12/09 05:36:07;;;;;;;16.90;3.00;;;21.30;99.90;;;;;;5045977;28;20509;-67
2021/12/09 05:38:34;;;;;;;9.23;1.77;;;21.10;99.90;;;;;;5027819;28;20033;-67
2021/12/09 05:41:01;;;;;;;8.10;1.92;;;21.00;99.90;;;;;;5030284;28;20025;-67
2021/12/09 05:43:29;;;;;;;9.43;2.20;;;21.10;99.90;;;;;;5022109;28;20022;-68
2021/12/09 05:45:56;;;;;;;10.55;1.52;;;20.90;99.90;;;;;;5028093;28;20036;-67
2021/12/09 05:48:23;;;;;;;7.97;1.75;;;20.70;99.90;;;;;;5027157;28;20042;-68
2021/12/09 05:50:51;;;;;;;7.63;1.92;;;20.60;99.90;;;;;;5022585;28;20022;-68
2021/12/09 05:53:21;;;;;;;9.00;2.13;;;20.40;99.90;;;;;;5018981;28;20034;-67
2021/12/09 05:55:48;;;;;;;8.65;1.52;;;20.20;99.90;;;;;;5020968;28;20022;-68
2021/12/09 05:58:18;;;;;;;9.32;1.50;;;20.00;99.90;;;;;;5018764;28;20056;-67
2021/12/09 06:00:47;;;;;;;9.60;2.17;;;19.90;99.90;;;;;;5017314;28;20022;-68
2021/12/09 06:03:14;;;;;;;9.77;2.50;;;19.90;99.90;;;;;;5017101;28;20033;-68
2021/12/09 06:05:41;;;;;;;8.82;2.47;;;19.90;99.90;;;;;;5017414;28;20026;-68
2021/12/09 06:08:08;;;;;;;9.23;2.65;;;19.80;99.90;;;;;;5018303;28;20086;-67
2021/12/09 06:10:36;;;;;;;9.75;2.97;;;19.70;99.90;;;;;;5015015;28;20100;-68
2021/12/09 06:13:05;;;;;;;11.80;2.40;;;19.60;99.90;;;;;;5014283;28;20026;-68
2021/12/09 06:15:33;;;;;;;9.07;2.55;;;19.50;99.90;;;;;;5014771;28;20544;-68
2021/12/09 06:18:00;;;;;;;10.98;2.80;;;19.50;99.90;;;;;;5012577;28;20449;-68
2021/12/09 06:20:28;;;;;;;10.75;2.35;;;19.40;99.90;;;;;;5012401;28;20110;-68
2021/12/09 06:22:55;;;;;;;11.40;2.95;;;19.40;99.90;;;;;;5014210;28;20057;-67
2021/12/09 06:25:23;;;;;;;11.82;3.00;;;19.40;99.90;;;;;;5013153;28;20496;-68
2021/12/09 06:27:51;;;;;;;10.80;3.55;;;19.40;99.90;;;;;;5010804;28;20026;-67
2021/12/09 06:30:20;;;;;;;19.55;3.13;;;19.30;99.90;;;;;;5013265;28;20054;-68
2021/12/09 06:32:48;;;;;;;13.32;3.70;;;19.40;99.90;;;;;;5011126;28;20054;-67
2021/12/09 06:35:16;;;;;;;10.10;2.85;;;19.30;99.90;;;;;;5011189;28;22588;-68
2021/12/09 06:37:45;;;;;;;10.93;2.58;;;19.30;99.90;;;;;;4997437;28;20072;-67
2021/12/09 06:40:16;;;;;;;9.23;2.83;;;19.40;99.90;;;;;;5011312;28;20409;-68
2021/12/09 06:42:44;;;;;;;7.53;2.72;;;19.50;99.90;;;;;;5012322;28;20022;-67
2021/12/09 06:45:13;;;;;;;11.48;2.92;;;19.40;99.90;;;;;;5006554;28;20501;-68
2021/12/09 06:47:41;;;;;;;10.65;2.85;;;19.40;99.90;;;;;;5012873;28;20076;-68
2021/12/09 06:50:11;;;;;;;14.55;3.40;;;19.30;99.90;;;;;;5014170;28;20033;-68
2021/12/09 06:52:39;;;;;;;12.85;2.97;;;19.30;99.90;;;;;;5012307;28;20014;-68
2021/12/09 06:55:09;;;;;;;10.15;3.38;;;19.40;99.90;;;;;;5014865;28;20058;-68
2021/12/09 06:57:38;;;;;;;5.63;2.03;;;19.40;99.90;;;;;;5015792;28;20056;-68
2021/12/09 07:00:21;;;;;;;11.07;3.13;;;19.40;99.90;;;;;;5016836;28;20057;-68
2021/12/09 07:02:48;;;;;;;8.63;2.42;;;19.50;99.90;;;;;;5016462;28;20025;-68
2021/12/09 07:05:18;;;;;;;8.18;2.20;;;19.40;99.90;;;;;;5004650;28;20403;-68
2021/12/09 07:07:46;;;;;;;6.95;2.40;;;19.40;99.90;;;;;;5013746;28;20034;-68
2021/12/09 07:10:14;;;;;;;9.55;3.80;;;19.50;99.90;;;;;;5014549;28;20062;-68
2021/12/09 07:12:42;;;;;;;14.63;3.58;;;19.50;99.90;;;;;;5014903;28;20402;-68
2021/12/09 07:15:13;;;;;;;10.18;2.78;;;19.50;99.90;;;;;;5014916;28;20030;-68
2021/12/09 07:17:40;;;;;;;10.38;3.08;;;19.50;99.90;;;;;;5016538;28;20235;-67
2021/12/09 07:20:11;;;;;;;11.50;3.45;;;19.60;99.90;;;;;;5016493;28;20502;-68
2021/12/09 07:22:39;;;;;;;6.70;2.15;;;19.60;99.90;;;;;;5014871;28;20022;-68
2021/12/09 07:25:07;;;;;;;7.65;2.40;;;19.50;99.90;;;;;;5016573;28;20048;-68
2021/12/09 07:27:34;;;;;;;6.82;2.28;;;19.50;99.90;;;;;;5014810;28;20030;-68
2021/12/09 07:30:02;;;;;;;11.45;2.97;;;19.50;99.90;;;;;;5000134;28;20668;-68
2021/12/09 07:32:29;;;;;;;9.57;2.38;;;19.50;99.90;;;;;;5013756;28;20045;-68
2021/12/09 07:34:57;;;;;;;15.02;3.08;;;19.60;99.90;;;;;;5011798;28;20030;-68
2021/12/09 07:37:24;;;;;;;10.50;2.25;;;19.50;99.90;;;;;;4996405;28;20022;-68
2021/12/09 07:39:51;;;;;;;7.35;2.65;;;19.50;99.90;;;;;;5014486;28;20037;-67
2021/12/09 07:42:19;;;;;;;7.78;2.58;;;19.50;99.90;;;;;;5015585;28;20021;-68
2021/12/09 07:44:46;;;;;;;11.88;3.25;;;19.40;99.90;;;;;;5014666;28;20041;-68
2021/12/09 07:47:14;;;;;;;14.35;2.65;;;19.50;99.90;;;;;;5015288;28;20471;-68
2021/12/09 07:49:41;;;;;;;7.95;2.30;;;19.50;99.90;;;;;;5013966;28;20054;-68
2021/12/09 07:52:08;;;;;;;8.60;2.45;;;19.40;99.90;;;;;;5015082;28;20355;-68
2021/12/09 07:54:36;;;;;;;10.60;2.22;;;19.40;99.90;;;;;;5012852;28;20482;-67
2021/12/09 07:57:03;;;;;;;8.38;2.03;;;19.50;99.90;;;;;;5013168;28;20124;-68
2021/12/09 07:59:30;;;;;;;13.15;2.70;;;19.40;99.90;;;;;;5013709;28;20021;-67
2021/12/09 08:01:58;;;;;;;7.60;2.10;;;19.40;99.90;;;;;;5014721;28;20087;-67
2021/12/09 08:04:25;;;;;;;8.43;2.60;;;19.40;99.90;;;;;;5012111;28;20038;-67
2021/12/09 08:06:52;;;;;;;11.15;3.00;;;19.40;99.90;;;;;;5014492;28;20029;-67
2021/12/09 08:09:20;;;;;;;8.25;3.45;;;19.30;99.90;;;;;;5014455;28;20386;-67
2021/12/09 08:11:47;;;;;;;11.75;3.08;;;19.30;99.90;;;;;;5014715;28;20080;-66
2021/12/09 08:14:16;;;;;;;12.82;3.90;;;19.30;99.90;;;;;;5022912;28;20029;-65
2021/12/09 08:16:43;;;;;;;9.73;2.83;;;19.30;99.90;;;;;;5034071;28;20057;-66
2021/12/09 08:19:13;;;;;;;11.45;3.10;;;19.20;99.90;;;;;;5018292;28;20038;-66
2021/12/09 08:21:41;;;;;;;12.68;3.80;;;19.20;99.90;;;;;;5014246;28;20517;-66
2021/12/09 08:24:11;;;;;;;17.70;3.55;;;19.20;99.90;;;;;;5012716;28;20018;-66
2021/12/09 08:26:38;;;;;;;13.73;3.35;;;19.20;99.90;;;;;;5011189;28;20064;-66
2021/12/09 08:29:06;;;;;;;9.65;3.08;;;19.20;99.90;;;;;;5013732;28;20032;-65
2021/12/09 08:31:35;;;;;;;13.43;4.00;;;19.00;99.90;;;;;;5030456;28;20120;-65
2021/12/09 08:34:04;;;;;;;9.90;3.53;;;19.10;99.90;;;;;;5013249;28;20045;-65
2021/12/09 08:36:33;;;;;;;11.07;3.53;;;19.10;99.90;;;;;;5013785;28;20030;-65
2021/12/09 08:39:00;;;;;;;18.80;3.63;;;19.00;99.90;;;;;;5014719;28;20494;-65
2021/12/09 08:41:27;;;;;;;16.27;4.43;;;19.00;99.90;;;;;;5014680;28;20029;-65
2021/12/09 08:43:55;;;;;;;13.43;4.28;;;19.00;99.90;;;;;;5014344;28;20033;-66
2021/12/09 08:46:22;;;;;;;15.30;4.55;;;19.00;99.90;;;;;;5014391;28;20089;-65
2021/12/09 08:48:49;;;;;;;10.93;3.25;;;19.00;99.90;;;;;;5006287;28;20049;-65
2021/12/09 08:51:17;;;;;;;13.63;3.88;;;19.00;99.90;;;;;;5015493;28;20026;-65
2021/12/09 08:53:44;;;;;;;12.95;4.03;;;19.00;99.90;;;;;;5016238;28;20087;-65
2021/12/09 08:56:11;;;;;;;12.60;4.25;;;18.90;99.90;;;;;;5017752;28;20101;-65
2021/12/09 08:58:39;;;;;;;14.52;4.97;;;18.80;99.90;;;;;;5016328;28;20029;-66
2021/12/09 09:01:11;;;;;;;14.02;4.70;;;18.80;99.90;;;;;;5019205;28;20030;-66
2021/12/09 09:03:39;;;;;;;13.25;4.50;;;18.70;99.90;;;;;;5014193;28;20038;-66
2021/12/09 09:06:06;;;;;;;13.18;5.05;;;18.70;99.90;;;;;;5018501;28;20081;-66
2021/12/09 09:08:33;;;;;;;16.67;4.68;;;18.70;99.90;;;;;;5018313;28;20117;-66
2021/12/09 09:11:01;;;;;;;14.45;5.43;;;18.70;99.90;;;;;;5017888;28;20092;-65
2021/12/09 09:13:28;;;;;;;11.93;3.92;;;18.70;99.90;;;;;;5016873;28;20030;-66
2021/12/09 09:15:56;;;;;;;9.75;3.40;;;18.70;99.90;;;;;;5019535;28;20033;-66
2021/12/09 09:18:23;;;;;;;10.35;3.70;;;18.70;99.90;;;;;;5018503;28;20033;-66
2021/12/09 09:20:50;;;;;;;10.38;4.65;;;18.70;99.90;;;;;;5012149;28;20034;-65
2021/12/09 09:23:22;;;;;;;12.40;3.75;;;18.70;99.90;;;;;;5007075;28;20113;-66
2021/12/09 09:25:50;;;;;;;9.45;3.00;;;18.70;99.90;;;;;;5018425;28;20080;-66
2021/12/09 09:28:18;;;;;;;10.50;3.63;;;18.60;99.90;;;;;;5017277;28;20026;-65
2021/12/09 09:30:56;;;;;;;11.40;3.75;;;18.60;99.90;;;;;;5032606;28;20072;-65
2021/12/09 09:33:29;;;;;;;9.07;3.55;;;18.60;99.90;;;;;;5016280;28;20088;-65
2021/12/09 09:35:58;;;;;;;12.30;3.40;;;18.60;99.90;;;;;;5016348;28;20075;-66
2021/12/09 09:38:25;;;;;;;8.85;3.53;;;18.60;99.90;;;;;;5016476;28;20080;-65
2021/12/09 09:41:04;;;;;;;16.00;4.22;;;18.60;99.90;;;;;;5031390;28;20021;-65
2021/12/09 09:43:55;;;;;;;13.88;4.50;;;18.60;99.90;;;;;;5015298;28;20029;-65
2021/12/09 09:46:29;;;;;;;13.65;3.60;;;18.60;99.90;;;;;;5013894;28;20045;-65
2021/12/09 09:48:59;;;;;;;23.27;5.70;;;18.60;99.90;;;;;;5028510;28;20045;-65
2021/12/09 09:51:29;;;;;;;9.02;3.53;;;18.70;99.90;;;;;;5011017;28;20030;-65
2021/12/09 09:53:57;;;;;;;13.18;3.83;;;18.70;99.90;;;;;;5012929;28;20359;-65
2021/12/09 09:56:25;;;;;;;13.93;4.63;;;18.70;99.90;;;;;;5013788;28;20394;-65
2021/12/09 09:58:56;;;;;;;8.68;4.05;;;18.70;99.90;;;;;;5000628;28;20038;-65
2021/12/09 10:01:24;;;;;;;7.93;3.20;;;18.70;99.90;;;;;;4992954;28;20030;-66
2021/12/09 10:03:59;;;;;;;10.10;3.72;;;18.70;99.90;;;;;;5005499;28;20026;-65
2021/12/09 10:06:26;;;;;;;10.55;2.92;;;18.70;99.90;;;;;;4993368;28;20399;-66
2021/12/09 10:08:54;;;;;;;13.10;3.60;;;18.70;99.90;;;;;;5000951;28;20034;-66
2021/12/09 10:11:21;;;;;;;9.10;2.95;;;18.70;99.90;;;;;;4993706;28;20042;-65
2021/12/09 10:13:48;;;;;;;12.35;4.88;;;18.70;99.90;;;;;;5002101;28;20026;-66
2021/12/09 10:16:19;;;;;;;13.05;4.10;;;18.70;99.90;;;;;;4993943;28;20022;-65
2021/12/09 10:18:49;;;;;;;16.63;5.28;;;18.70;99.90;;;;;;5008572;28;20100;-65
2021/12/09 10:21:21;;;;;;;14.68;4.60;;;18.70;99.90;;;;;;5013259;28;20486;-65
2021/12/09 10:23:59;;;;;;;18.13;4.97;;;18.70;99.90;;;;;;5013630;28;20479;-65
2021/12/09 10:26:41;;;;;;;10.80;4.50;;;18.70;99.90;;;;;;5014717;28;20457;-65
2021/12/09 10:29:13;;;;;;;13.10;5.15;;;18.70;99.90;;;;;;5014582;28;20540;-65
2021/12/09 10:31:44;;;;;;;16.65;5.38;;;18.70;99.90;;;;;;5018412;28;20026;-65
2021/12/09 10:34:39;;;;;;;16.92;4.30;;;18.70;99.90;;;;;;5016920;28;20021;-65
2021/12/09 10:37:06;;;;;;;12.95;4.70;;;18.70;99.90;;;;;;5019084;28;20037;-65
2021/12/09 10:39:39;;;;;;;11.73;4.97;;;18.70;99.90;;;;;;5017797;28;20037;-65
2021/12/09 10:42:13;;;;;;;17.70;5.65;;;18.70;99.90;;;;;;5016801;28;20046;-65
2021/12/09 10:44:42;;;;;;;18.50;4.07;;;18.70;99.90;;;;;;5012533;28;20034;-66
2021/12/09 10:47:20;;;;;;;9.30;4.15;;;18.70;99.90;;;;;;5002324;28;20423;-66
2021/12/09 10:50:18;;;;;;;15.63;4.68;;;18.70;99.90;;;;;;5015958;28;20064;-66
2021/12/09 10:52:54;;;;;;;16.92;5.05;;;18.70;99.90;;;;;;5013649;28;20036;-66
2021/12/09 10:55:34;;;;;;;5.10;2.53;;;18.70;99.90;;;;;;5016321;28;20037;-66
2021/12/09 10:58:13;;;;;;;14.77;3.50;;;18.70;99.90;;;;;;5015556;28;20069;-66
2021/12/09 11:00:54;;;;;;;12.48;3.83;;;18.70;99.90;;;;;;5016271;28;20030;-65
2021/12/09 11:03:25;;;;;;;7.63;3.33;;;18.60;99.90;;;;;;5016325;28;20026;-65
2021/12/09 11:05:52;;;;;;;8.38;2.70;;;18.50;99.90;;;;;;5013260;28;20038;-66
2021/12/09 11:08:24;;;;;;;8.93;3.50;;;18.50;99.90;;;;;;5011481;28;20026;-66
2021/12/09 11:11:28;;;;;;;7.78;3.60;;;18.50;99.90;;;;;;4995932;28;20042;-66
2021/12/09 11:14:05;;;;;;;8.20;2.90;;;18.40;99.90;;;;;;5008266;28;20034;-66
2021/12/09 11:16:36;;;;;;;8.43;3.15;;;18.40;99.90;;;;;;5031151;28;20034;-65
2021/12/09 11:19:47;;;;;;;7.60;3.90;;;18.30;99.90;;;;;;5014501;28;20494;-66
2021/12/09 11:22:12;;;;;;;8.95;3.55;;;18.40;99.90;;;;;;5015601;28;20430;-66
2021/12/09 11:24:44;;;;;;;10.35;3.03;;;18.30;99.90;;;;;;5015314;28;20113;-66
2021/12/09 11:27:15;;;;;;;6.68;2.22;;;18.40;99.90;;;;;;5014507;28;20121;-66
2021/12/09 11:29:50;;;;;;;8.77;3.40;;;18.40;99.90;;;;;;5014497;28;20025;-66
2021/12/09 11:35:03;;;;;;;7.80;3.20;;;18.40;99.90;;;;;;5015299;28;20038;-66
2021/12/09 11:37:45;;;;;;;6.45;3.85;;;18.40;99.90;;;;;;5015190;28;20429;-67
2021/12/09 11:43:07;;;;;;;9.60;2.90;;;18.50;99.90;;;;;;5016468;28;20584;-66
2021/12/09 11:45:36;;;;;;;7.95;2.90;;;18.40;99.90;;;;;;5016024;28;20030;-67
2021/12/09 11:48:07;;;;;;;6.85;3.20;;;18.40;99.90;;;;;;5014047;28;20524;-67
2021/12/09 11:50:38;;;;;;;6.35;2.85;;;18.40;99.90;;;;;;5015598;28;20064;-66
2021/12/09 11:53:08;;;;;;;14.35;3.25;;;18.40;99.90;;;;;;5015035;28;20124;-67
2021/12/09 11:55:43;;;;;;;9.05;2.92;;;18.40;99.90;;;;;;5015645;28;20498;-66
2021/12/09 11:58:21;;;;;;;6.47;3.00;;;18.40;99.90;;;;;;5014938;28;20054;-66
2021/12/09 12:07:42;;;;;;;6.43;3.40;;;18.40;99.90;;;;;;4995589;28;20043;-67
2021/12/09 12:13:01;;;;;;;6.78;4.07;;;18.30;99.90;;;;;;4978751;28;20029;-67
2021/12/09 12:20:47;;;;;;;8.23;4.15;;;18.20;99.90;;;;;;4995579;28;20027;-66
2021/12/09 12:23:50;;;;;;;7.40;4.18;;;18.20;99.90;;;;;;5001929;28;20117;-67
2021/12/09 12:32:21;;;;;;;8.45;3.88;;;18.20;99.90;;;;;;5014529;28;20026;-66
2021/12/09 12:38:12;;;;;;;13.70;4.53;;;18.30;99.90;;;;;;5013859;28;20033;-66
2021/12/09 12:41:21;;;;;;;7.07;3.50;;;18.40;99.90;;;;;;5010207;28;20035;-66
2021/12/09 12:43:56;;;;;;;7.57;3.67;;;18.30;99.90;;;;;;4966151;28;20091;-66
2021/12/09 12:46:58;;;;;;;9.90;4.15;;;18.30;99.90;;;;;;4958853;28;20035;-66
2021/12/09 12:49:34;;;;;;;9.23;4.28;;;18.20;99.90;;;;;;5005414;28;20046;-66
2021/12/09 12:52:16;;;;;;;8.27;5.03;;;18.20;99.90;;;;;;5015317;28;20026;-65
2021/12/09 12:57:47;;;;;;;15.52;6.90;;;18.10;99.90;;;;;;5010575;28;20030;-65
2021/12/09 13:00:29;;;;;;;10.80;6.13;;;18.10;99.90;;;;;;4995566;28;20057;-65
2021/12/09 13:03:12;;;;;;;11.93;5.60;;;18.00;99.90;;;;;;5001553;28;20014;-65
2021/12/09 13:08:48;;;;;;;9.93;6.00;;;18.00;99.90;;;;;;5015515;28;20038;-65
2021/12/09 13:11:24;;;;;;;9.32;4.95;;;18.00;99.90;;;;;;5016873;28;20562;-65
2021/12/09 13:14:05;;;;;;;10.13;4.85;;;18.00;99.90;;;;;;5030175;28;20065;-65
2021/12/09 13:19:33;;;;;;;13.40;6.30;;;17.90;99.90;;;;;;5010815;28;20068;-65
2021/12/09 13:22:09;;;;;;;11.75;6.10;;;18.00;99.90;;;;;;5018456;28;20113;-66
2021/12/09 13:25:05;;;;;;;10.60;5.20;;;18.00;99.90;;;;;;5017287;28;20034;-66
2021/12/09 13:30:41;;;;;;;9.68;6.38;;;17.90;99.90;;;;;;4999513;28;20027;-65
2021/12/09 13:47:03;;;;;;;11.48;5.13;;;17.80;99.90;;;;;;5017915;28;20052;-66
2021/12/09 13:49:53;;;;;;;13.98;5.15;;;17.80;99.90;;;;;;5014321;28;20049;-66
2021/12/09 13:55:30;;;;;;;12.95;5.40;;;17.80;99.90;;;;;;4998133;28;20034;-68
2021/12/09 13:58:01;;;;;;;18.02;10.45;;;17.70;99.90;;;;;;5005881;28;20433;-68
2021/12/09 14:00:31;;;;;;;14.23;9.52;;;17.70;99.90;;;;;;5025654;28;20037;-68
2021/12/09 14:03:12;;;;;;;10.50;6.25;;;17.70;99.90;;;;;;5023167;28;20026;-68
2021/12/09 14:05:51;;;;;;;15.80;6.70;;;17.60;99.90;;;;;;5026332;28;20049;-68